Mercer County Airport
KBLF : now visible

Airfield :











YOU CAN JOIN US ON...

 
LOGIN :

Register | Disclaimer

   EN    FR    IT 

 









Legend :    VFR   Marginal VFR   IFR   Intensive IFR   Very Intensive IFR
Visi :
Ceiling :
>= 8 km
>= 3000ft
5 to 8 km
1000 to 3000 ft
1500m to 5 km
500 to 1000 ft
800 to 1500m
200 to 500 ft
< 800m
< 200 ft
Symbols :   Thunderstorms  Fog  Heavy snow  Heavy precipitations  Wind > 20 kt






- Airport Elevation : 2857 ft
- IATA code : BLF


KBLF - Mercer County

CURRENT METAR :
  • 242234Z AUTO 22007KT 3SM RA BR FEW010 BKN015 OVC028 07/07 A2990 RMK AO2 P0015 T00720067 TSNO

EXPIRED METARs :
  • 242216Z AUTO VRB03KT 3SM RA BR BKN014 OVC022 07/07 A2990 RMK AO2 P0008 T00720067 TSNO
  • 242152Z AUTO 00000KT 4SM -RA BR BKN012 OVC018 07/07 A2989 RMK AO2 SLP123 P0014 T00720067 TSNO
  • 242052Z AUTO VRB06G19KT 6SM RA BR BKN013 OVC020 08/07 A2987 RMK AO2 SLP115 P0012 60022 T00780067 56024 TSNO
  • 242045Z AUTO 15011G19KT 090V180 8SM -RA BKN013 BKN018 OVC034 08/07 A2987 RMK AO2 P0011 T00830067 TSNO
  • 242005Z AUTO 15006G17KT 4SM RA BR BKN015 BKN021 OVC029 08/07 A2990 RMK AO2 P0003 T00780067 TSNO
  • 241952Z AUTO 14009G15KT 5SM RA BR BKN013 BKN020 OVC029 08/07 A2990 RMK AO2 SLP126 P0008 T00780067 TSNO
  • 241944Z AUTO 13008G21KT 4SM RA BR BKN013 BKN020 OVC031 08/07 A2989 RMK AO2 P0006 T00780067 TSNO

TAF KBLF
Valid from the 24 at 20:00 until the 25 at 18:00 UTC


241931Z 2420/2518 13013G28KT 4SM SHRA BR BKN015 WS020/16050KT
TEMPO 2420/2423 2SM SHRA BR OVC008
FM242300 16006KT 2SM SHRA OVC009
FM250000 VRB03KT 5SM -SHRA OVC019
FM250100 VRB03KT 5SM BR BKN019
TEMPO 2501/2502 2SM -SHRA OVC007
FM250600 VRB02KT P6SM BKN050
FM251000 VRB03KT 6SM BR BKN011



MET'MAP, your aeronautical weather chart ! - Copyright ORBIFLY December 2007 - Disclaimer

ORBIFLY MET'MAP TEAM :

Programming & Development : Alexandra Zaïnal
Concept & original design : Baudouin d'Aumeries
Assistance for programming : Marc-Olivier Méhu
Technical & hardware support : Manuel Goepfert

Contact : metmap@orbifly.com




SOURCES & CREDITS :

   NOAA       Earth
Advisory